createdAt,value
2018-09-01T00:01:13.850Z,3.03
2018-09-01T00:03:48.817Z,4.20
2018-09-01T00:06:23.831Z,3.20
2018-09-01T00:08:58.852Z,4.00
2018-09-01T00:11:33.896Z,2.03
2018-09-01T00:14:08.748Z,3.57
2018-09-01T00:16:43.564Z,3.07
2018-09-01T00:19:18.360Z,6.23
2018-09-01T00:21:53.353Z,3.07
2018-09-01T00:24:28.513Z,2.83
2018-09-01T00:27:03.549Z,2.47
2018-09-01T00:29:38.391Z,2.83
2018-09-01T00:32:13.358Z,3.57
2018-09-01T00:34:48.506Z,2.67
2018-09-01T00:37:28.854Z,3.13
2018-09-01T00:40:03.825Z,4.37
2018-09-01T00:42:38.786Z,3.23
2018-09-01T00:45:13.818Z,2.40
2018-09-01T00:47:48.878Z,2.97
2018-09-01T00:50:24.244Z,2.00
2018-09-01T00:52:59.122Z,2.33
2018-09-01T00:55:33.962Z,5.27
2018-09-01T00:58:08.723Z,2.43
2018-09-01T01:00:43.495Z,3.00
2018-09-01T01:03:18.254Z,2.50
2018-09-01T01:05:53.301Z,2.00
2018-09-01T01:08:28.197Z,2.73
2018-09-01T01:11:02.952Z,2.43
2018-09-01T01:13:37.961Z,2.00
2018-09-01T01:16:12.819Z,2.60
2018-09-01T01:18:47.612Z,3.73
2018-09-01T01:21:22.485Z,3.80
2018-09-01T01:23:57.397Z,3.03
2018-09-01T01:26:32.302Z,3.27
2018-09-01T01:29:07.405Z,2.70
2018-09-01T01:31:42.303Z,3.80
2018-09-01T01:34:17.453Z,3.33
2018-09-01T01:36:52.516Z,4.53
2018-09-01T01:39:27.578Z,2.60
2018-09-01T01:42:02.161Z,2.00
2018-09-01T01:44:37.202Z,2.83
2018-09-01T01:47:12.012Z,2.53
2018-09-01T01:49:47.074Z,2.13
2018-09-01T01:52:21.964Z,2.40
2018-09-01T01:54:56.782Z,4.20
2018-09-01T01:57:31.684Z,2.30
2018-09-01T02:00:07.292Z,2.60
2018-09-01T02:02:42.249Z,2.70
2018-09-01T02:05:18.696Z,2.27
2018-09-01T02:07:53.497Z,3.27
2018-09-01T02:10:28.516Z,2.13
2018-09-01T02:13:03.414Z,2.30
2018-09-01T02:15:38.214Z,2.20
2018-09-01T02:18:13.006Z,3.00
2018-09-01T02:20:48.251Z,2.10
2018-09-01T02:23:23.133Z,3.03
2018-09-01T02:25:58.485Z,2.53
2018-09-01T02:28:33.409Z,2.47
2018-09-01T02:31:08.211Z,2.10
2018-09-01T02:33:42.968Z,2.30
2018-09-01T02:36:18.018Z,1.57
2018-09-01T02:38:52.829Z,2.10
2018-09-01T02:41:27.606Z,2.70
2018-09-01T02:44:02.659Z,1.93
2018-09-01T02:46:37.505Z,1.73
2018-09-01T02:49:12.497Z,2.00
2018-09-01T02:51:47.486Z,2.10
2018-09-01T02:54:22.293Z,2.40
2018-09-01T02:56:57.205Z,3.43
2018-09-01T02:59:32.596Z,2.57
2018-09-01T03:02:07.341Z,1.80
2018-09-01T03:04:41.961Z,2.33
2018-09-01T03:07:16.753Z,2.83
2018-09-01T03:09:51.774Z,1.77
2018-09-01T03:12:26.837Z,1.50
2018-09-01T03:15:01.786Z,1.80
2018-09-01T03:17:36.812Z,1.70
2018-09-01T03:20:11.641Z,2.10
2018-09-01T03:22:46.405Z,2.07
2018-09-01T03:25:21.230Z,2.20
2018-09-01T03:27:56.057Z,2.03
2018-09-01T03:30:31.053Z,2.50
2018-09-01T03:33:05.861Z,1.70
2018-09-01T03:35:40.661Z,1.90
2018-09-01T03:38:15.729Z,1.30
2018-09-01T03:40:50.539Z,2.17
2018-09-01T03:43:25.561Z,1.80
2018-09-01T03:46:00.622Z,2.47
2018-09-01T03:48:35.674Z,2.03
2018-09-01T03:51:10.817Z,1.57
2018-09-01T03:53:45.688Z,1.90
2018-09-01T03:56:20.593Z,1.83
2018-09-01T03:58:55.412Z,1.60
2018-09-01T04:01:30.232Z,2.50
2018-09-01T04:04:05.009Z,1.50
2018-09-01T04:06:39.787Z,2.10
2018-09-01T04:09:14.795Z,2.10
2018-09-01T04:11:49.912Z,3.33
2018-09-01T04:14:24.702Z,1.87
2018-09-01T04:16:59.713Z,1.80
2018-09-01T04:19:34.787Z,2.33
2018-09-01T04:22:09.461Z,2.03
2018-09-01T04:24:44.270Z,1.97
2018-09-01T04:27:19.017Z,1.40
2018-09-01T04:29:54.041Z,1.93
2018-09-01T04:32:29.122Z,4.10
2018-09-01T04:35:04.241Z,1.60
2018-09-01T04:37:39.203Z,1.60
2018-09-01T04:40:13.993Z,1.50
2018-09-01T04:42:49.281Z,1.73
2018-09-01T04:45:24.186Z,1.50
2018-09-01T04:47:59.193Z,1.60
2018-09-01T04:50:34.204Z,1.37
2018-09-01T04:53:09.195Z,3.60
2018-09-01T04:55:43.970Z,1.30
2018-09-01T04:58:18.767Z,10.00
2018-09-01T05:00:54.704Z,1.73
2018-09-01T05:03:29.864Z,1.60
2018-09-01T05:06:04.927Z,1.70
2018-09-01T05:08:39.769Z,1.93
2018-09-01T05:11:14.535Z,1.40
2018-09-01T05:13:49.257Z,6.80
2018-09-01T05:16:24.041Z,19.87
2018-09-01T05:18:58.696Z,10.73
2018-09-01T05:21:33.737Z,10.83
2018-09-01T05:24:08.576Z,14.67
2018-09-01T05:26:43.428Z,11.57
2018-09-01T05:29:18.456Z,8.60
2018-09-01T05:31:53.426Z,8.57
2018-09-01T05:34:28.558Z,29.13
2018-09-01T05:37:03.561Z,9.40
2018-09-01T05:39:38.503Z,9.70
2018-09-01T05:42:13.520Z,15.80
2018-09-01T05:44:48.668Z,9.07
2018-09-01T05:47:23.772Z,7.90
2018-09-01T05:49:58.858Z,7.13
2018-09-01T05:52:33.668Z,16.17
2018-09-01T05:55:08.473Z,13.50
2018-09-01T05:57:43.233Z,14.83
2018-09-01T06:00:20.975Z,9.33
2018-09-01T06:02:55.739Z,10.37
2018-09-01T06:05:30.518Z,12.53
2018-09-01T06:08:05.318Z,10.50
2018-09-01T06:10:40.744Z,11.87
2018-09-01T06:13:15.561Z,13.23
2018-09-01T06:15:50.624Z,7.67
2018-09-01T06:18:25.685Z,16.90
2018-09-01T06:21:01.768Z,20.43
2018-09-01T06:23:36.820Z,11.93
2018-09-01T06:26:11.856Z,16.70
2018-09-01T06:28:52.499Z,13.33
2018-09-01T06:31:27.177Z,12.43
2018-09-01T06:34:01.859Z,17.70
2018-09-01T06:36:36.966Z,11.03
2018-09-01T06:39:11.769Z,8.90
2018-09-01T06:41:46.544Z,11.20
2018-09-01T06:44:21.492Z,10.83
2018-09-01T06:46:56.524Z,7.43
2018-09-01T06:49:31.578Z,10.50
2018-09-01T06:52:06.417Z,9.37
2018-09-01T06:54:41.441Z,10.17
2018-09-01T06:57:16.624Z,11.40
2018-09-01T06:59:51.307Z,13.00
2018-09-01T07:02:26.708Z,12.60
2018-09-01T07:05:01.700Z,8.23
2018-09-01T07:07:36.757Z,9.50
2018-09-01T07:10:11.663Z,17.40
2018-09-01T07:12:46.636Z,7.43
2018-09-01T07:15:21.513Z,4.80
2018-09-01T07:17:56.636Z,9.50
2018-09-01T07:20:31.828Z,5.40
2018-09-01T07:23:06.869Z,7.60
2018-09-01T07:25:41.747Z,10.50
2018-09-01T07:28:16.543Z,4.00
2018-09-01T07:30:52.681Z,14.50
2018-09-01T07:33:27.733Z,13.20
2018-09-01T07:36:02.951Z,7.10
2018-09-01T07:38:38.024Z,8.07
2018-09-01T07:41:12.873Z,11.87
2018-09-01T07:43:47.980Z,6.13
2018-09-01T07:46:22.794Z,5.13
2018-09-01T07:48:57.802Z,8.10
2018-09-01T07:51:32.793Z,6.47
2018-09-01T07:54:07.537Z,5.37
2018-09-01T07:56:42.571Z,9.70
2018-09-01T07:59:17.777Z,4.60
2018-09-01T08:01:52.804Z,9.60
2018-09-01T08:04:27.643Z,13.77
2018-09-01T08:07:02.656Z,11.37
2018-09-01T08:09:37.831Z,5.23
2018-09-01T08:12:12.905Z,8.23
2018-09-01T08:14:47.964Z,8.93
2018-09-01T08:17:22.827Z,5.53
2018-09-01T08:19:57.888Z,7.40
2018-09-01T08:22:32.724Z,4.87
2018-09-01T08:25:07.769Z,3.63
2018-09-01T08:27:42.845Z,3.73
2018-09-01T08:30:17.961Z,5.37
2018-09-01T08:32:53.425Z,4.30
2018-09-01T08:35:28.602Z,8.20
2018-09-01T08:38:03.521Z,5.87
2018-09-01T08:40:38.532Z,4.27
2018-09-01T08:43:13.362Z,3.87
2018-09-01T08:45:48.159Z,6.77
2018-09-01T08:48:23.230Z,5.03
2018-09-01T08:50:58.064Z,4.80
2018-09-01T08:53:32.857Z,5.17
2018-09-01T08:56:07.944Z,5.90
2018-09-01T08:58:42.799Z,3.57
2018-09-01T09:01:17.717Z,5.27
2018-09-01T09:03:52.823Z,5.70
2018-09-01T09:06:27.949Z,6.37
2018-09-01T09:09:03.541Z,5.23
2018-09-01T09:11:38.669Z,9.13
2018-09-01T09:14:13.515Z,3.63
2018-09-01T09:16:48.704Z,5.93
2018-09-01T09:19:23.796Z,3.40
2018-09-01T09:21:58.849Z,7.20
2018-09-01T09:24:33.889Z,3.93
2018-09-01T09:27:08.948Z,3.73
2018-09-01T09:29:44.028Z,3.87
2018-09-01T09:32:18.948Z,5.53
2018-09-01T09:34:53.940Z,4.10
2018-09-01T09:37:28.940Z,4.03
2018-09-01T09:40:03.867Z,3.27
2018-09-01T09:42:38.766Z,3.00
2018-09-01T09:45:13.838Z,4.00
2018-09-01T09:47:48.808Z,3.03
2018-09-01T09:50:23.834Z,3.70
2018-09-01T09:52:58.931Z,6.80
2018-09-01T09:55:34.348Z,3.97
2018-09-01T09:58:09.227Z,4.67
2018-09-01T10:00:50.095Z,5.70
2018-09-01T10:03:25.481Z,4.30
2018-09-01T10:06:00.301Z,2.90
2018-09-01T10:08:35.325Z,2.97
2018-09-01T10:11:10.184Z,3.17
2018-09-01T10:13:45.421Z,4.57
2018-09-01T10:16:20.243Z,5.33
2018-09-01T10:18:55.125Z,3.70
2018-09-01T10:21:30.160Z,2.93
2018-09-01T10:24:05.196Z,2.73
2018-09-01T10:26:40.732Z,2.77
2018-09-01T10:29:15.605Z,3.87
2018-09-01T10:31:50.619Z,5.47
2018-09-01T10:34:26.036Z,3.17
2018-09-01T10:37:00.962Z,3.23
2018-09-01T10:39:35.925Z,7.10
2018-09-01T10:42:10.944Z,3.53
2018-09-01T10:44:45.980Z,6.00
2018-09-01T10:47:20.790Z,5.80
2018-09-01T10:49:55.710Z,2.40
2018-09-01T10:52:30.566Z,2.73
2018-09-01T10:55:05.904Z,2.90
2018-09-01T10:57:40.801Z,2.60
2018-09-01T11:00:18.895Z,2.87
2018-09-01T11:02:53.519Z,2.63
2018-09-01T11:05:28.536Z,2.97
2018-09-01T11:08:04.316Z,2.93
2018-09-01T11:10:39.186Z,2.40
2018-09-01T11:13:13.994Z,3.03
2018-09-01T11:15:49.246Z,3.17
2018-09-01T11:18:24.282Z,3.40
2018-09-01T11:20:59.410Z,2.90
2018-09-01T11:23:34.221Z,3.37
2018-09-01T11:26:09.249Z,2.60
2018-09-01T11:28:44.089Z,2.90
2018-09-01T11:31:18.912Z,2.30
2018-09-01T11:33:54.966Z,2.77
2018-09-01T11:36:30.006Z,3.17
2018-09-01T11:39:06.243Z,3.43
2018-09-01T11:41:41.366Z,2.23
2018-09-01T11:44:16.292Z,2.90
2018-09-01T11:46:51.711Z,2.23
2018-09-01T11:49:26.590Z,2.60
2018-09-01T11:52:01.984Z,2.60
2018-09-01T11:54:36.997Z,3.00
2018-09-01T11:57:11.821Z,3.23
2018-09-01T11:59:46.572Z,1.80
2018-09-01T12:02:21.647Z,2.57
2018-09-01T12:04:56.470Z,2.00
2018-09-01T12:07:31.489Z,2.30
2018-09-01T12:10:07.129Z,2.10
2018-09-01T12:12:42.209Z,2.33
2018-09-01T12:15:17.086Z,2.40
2018-09-01T12:17:51.958Z,2.17
2018-09-01T12:20:27.055Z,2.33
2018-09-01T12:23:02.117Z,1.77
2018-09-01T12:25:37.207Z,2.30
2018-09-01T12:28:12.103Z,2.30
2018-09-01T12:30:47.102Z,2.80
2018-09-01T12:33:21.921Z,2.23
2018-09-01T12:35:57.025Z,2.07
2018-09-01T12:38:32.123Z,1.90
2018-09-01T12:41:06.936Z,2.17
2018-09-01T12:43:41.899Z,2.23
2018-09-01T12:46:16.712Z,2.07
2018-09-01T12:48:51.713Z,2.33
2018-09-01T12:51:27.008Z,2.90
2018-09-01T12:54:01.817Z,2.20
2018-09-01T12:56:36.618Z,2.67
2018-09-01T12:59:11.877Z,2.53
2018-09-01T13:01:46.928Z,1.77
2018-09-01T13:04:22.087Z,2.30
2018-09-01T13:06:57.110Z,2.30
2018-09-01T13:09:31.945Z,1.70
2018-09-01T13:12:06.717Z,2.20
2018-09-01T13:14:42.178Z,2.47
2018-09-01T13:17:17.029Z,2.00
2018-09-01T13:19:52.079Z,1.70
2018-09-01T13:22:26.938Z,2.10
2018-09-01T13:25:01.935Z,1.90
2018-09-01T13:27:37.035Z,1.93
2018-09-01T13:30:12.128Z,2.30
2018-09-01T13:32:47.246Z,2.00
2018-09-01T13:35:22.573Z,2.10
2018-09-01T13:37:57.624Z,2.20
2018-09-01T13:40:32.703Z,1.93
2018-09-01T13:43:07.667Z,2.40
2018-09-01T13:45:42.518Z,1.73
2018-09-01T13:48:17.368Z,2.20
2018-09-01T13:50:52.188Z,1.73
2018-09-01T13:53:27.091Z,3.77
2018-09-01T13:56:02.153Z,2.27
2018-09-01T13:58:37.287Z,2.10
2018-09-01T14:01:12.277Z,2.20
2018-09-01T14:03:47.047Z,2.23
2018-09-01T14:06:21.990Z,1.87
2018-09-01T14:08:56.850Z,1.83
2018-09-01T14:11:31.524Z,1.80
2018-09-01T14:14:06.594Z,2.43
2018-09-01T14:16:41.488Z,1.80
2018-09-01T14:19:16.515Z,2.50
2018-09-01T14:21:51.385Z,1.87
2018-09-01T14:24:26.177Z,1.20
2018-09-01T14:27:01.185Z,1.60
2018-09-01T14:29:36.029Z,1.70
2018-09-01T14:32:11.012Z,2.43
2018-09-01T14:34:46.056Z,1.70
2018-09-01T14:37:21.172Z,1.80
2018-09-01T14:39:56.203Z,2.00
2018-09-01T14:42:31.038Z,1.90
2018-09-01T14:45:06.017Z,2.10
2018-09-01T14:47:40.888Z,2.00
2018-09-01T14:50:15.681Z,1.27
2018-09-01T14:52:50.460Z,2.60
2018-09-01T14:55:25.788Z,1.80
2018-09-01T14:58:00.830Z,2.40
2018-09-01T15:00:35.757Z,1.63
2018-09-01T15:03:10.421Z,1.90
2018-09-01T15:05:45.428Z,2.23
2018-09-01T15:08:20.264Z,1.50
2018-09-01T15:10:55.273Z,1.87
2018-09-01T15:13:30.360Z,6.43
2018-09-01T15:16:05.230Z,1.90
2018-09-01T15:18:39.870Z,2.10
2018-09-01T15:21:14.900Z,1.83
2018-09-01T15:23:49.923Z,2.00
2018-09-01T15:26:24.975Z,3.37
2018-09-01T15:29:00.109Z,1.40
2018-09-01T15:31:35.176Z,1.30
2018-09-01T15:34:10.272Z,1.20
2018-09-01T15:36:45.366Z,2.00
2018-09-01T15:39:20.436Z,1.67
2018-09-01T15:41:55.524Z,1.93
2018-09-01T15:44:30.357Z,2.33
2018-09-01T15:47:05.355Z,1.83
2018-09-01T15:49:40.493Z,1.37
2018-09-01T15:52:15.602Z,1.70
2018-09-01T15:54:50.472Z,1.60
2018-09-01T15:57:25.469Z,1.63
2018-09-01T16:00:00.338Z,1.80
2018-09-01T16:02:35.216Z,1.57
2018-09-01T16:05:10.093Z,1.50
2018-09-01T16:07:45.096Z,1.57
2018-09-01T16:10:19.948Z,1.60
2018-09-01T16:12:55.034Z,1.30
2018-09-01T16:15:29.854Z,1.43
2018-09-01T16:18:04.879Z,1.77
2018-09-01T16:20:39.816Z,1.83
2018-09-01T16:23:14.576Z,1.53
2018-09-01T16:25:49.569Z,1.77
2018-09-01T16:28:24.502Z,1.50
2018-09-01T16:30:59.593Z,1.37
2018-09-01T16:33:34.866Z,2.03
2018-09-01T16:36:10.308Z,2.13
2018-09-01T16:38:45.199Z,1.63
2018-09-01T16:41:20.212Z,1.80
2018-09-01T16:43:55.017Z,1.60
2018-09-01T16:46:30.239Z,1.80
2018-09-01T16:49:05.280Z,1.97
2018-09-01T16:51:40.074Z,1.27
2018-09-01T16:54:14.981Z,2.23
2018-09-01T16:56:50.397Z,1.80
2018-09-01T16:59:25.233Z,1.80
2018-09-01T17:02:00.656Z,1.97
2018-09-01T17:04:35.738Z,1.40
2018-09-01T17:07:10.667Z,1.60
2018-09-01T17:09:45.611Z,1.30
2018-09-01T17:12:20.657Z,1.63
2018-09-01T17:14:55.465Z,1.20
2018-09-01T17:17:30.488Z,1.30
2018-09-01T17:20:05.641Z,2.70
2018-09-01T17:22:40.697Z,1.37
2018-09-01T17:25:16.794Z,1.80
2018-09-01T17:27:52.027Z,1.40
2018-09-01T17:30:26.800Z,1.93
2018-09-01T17:33:01.793Z,1.30
2018-09-01T17:35:36.955Z,2.00
2018-09-01T17:38:12.033Z,1.57
2018-09-01T17:40:47.172Z,1.50
2018-09-01T17:43:22.256Z,1.50
2018-09-01T17:45:57.253Z,1.50
2018-09-01T17:48:32.008Z,1.27
2018-09-01T17:51:06.932Z,1.50
2018-09-01T17:53:41.672Z,1.40
2018-09-01T17:56:16.377Z,1.73
2018-09-01T17:58:51.630Z,1.30
2018-09-01T18:01:27.689Z,1.43
2018-09-01T18:04:03.221Z,1.67
2018-09-01T18:06:38.169Z,1.23
2018-09-01T18:09:12.932Z,1.23
2018-09-01T18:11:47.934Z,1.10
2018-09-01T18:14:22.779Z,1.40
2018-09-01T18:16:57.817Z,1.70
2018-09-01T18:19:33.035Z,1.70
2018-09-01T18:22:08.383Z,1.93
2018-09-01T18:24:43.389Z,1.43
2018-09-01T18:27:18.598Z,1.33
2018-09-01T18:29:54.104Z,1.50
2018-09-01T18:32:29.332Z,1.47
2018-09-01T18:35:04.784Z,1.50
2018-09-01T18:37:39.756Z,1.77
2018-09-01T18:40:14.636Z,1.33
2018-09-01T18:42:49.862Z,1.93
2018-09-01T18:45:25.162Z,1.60
2018-09-01T18:48:00.112Z,1.30
2018-09-01T18:50:35.117Z,1.90
2018-09-01T18:53:10.206Z,1.60
2018-09-01T18:55:45.275Z,1.43
2018-09-01T18:58:20.350Z,1.50
2018-09-01T19:00:55.745Z,1.57
2018-09-01T19:03:31.161Z,1.80
2018-09-01T19:06:06.212Z,1.60
2018-09-01T19:08:41.074Z,1.60
2018-09-01T19:11:16.131Z,2.23
2018-09-01T19:13:51.625Z,1.87
2018-09-01T19:16:26.685Z,1.40
2018-09-01T19:19:01.518Z,1.63
2018-09-01T19:21:36.551Z,1.87
2018-09-01T19:24:11.406Z,1.30
2018-09-01T19:26:46.432Z,2.10
2018-09-01T19:29:21.557Z,1.63
2018-09-01T19:31:56.640Z,1.70
2018-09-01T19:34:31.492Z,1.67
2018-09-01T19:37:06.271Z,1.60
2018-09-01T19:39:41.299Z,1.20
2018-09-01T19:42:16.120Z,1.50
2018-09-01T19:44:51.099Z,1.50
2018-09-01T19:47:25.950Z,1.30
2018-09-01T19:50:01.136Z,1.33
2018-09-01T19:52:36.158Z,1.33
2018-09-01T19:55:11.413Z,1.43
2018-09-01T19:57:46.278Z,2.00
2018-09-01T20:00:21.115Z,1.40
2018-09-01T20:02:55.779Z,1.30
2018-09-01T20:05:30.847Z,1.77
2018-09-01T20:08:05.609Z,1.50
2018-09-01T20:10:40.369Z,1.37
2018-09-01T20:13:15.402Z,1.70
2018-09-01T20:15:50.454Z,1.40
2018-09-01T20:18:25.220Z,1.50
2018-09-01T20:21:00.221Z,1.60
2018-09-01T20:23:35.041Z,1.17
2018-09-01T20:26:10.106Z,2.07
2018-09-01T20:28:44.969Z,1.80
2018-09-01T20:31:19.799Z,1.77
2018-09-01T20:33:54.712Z,1.57
2018-09-01T20:36:29.997Z,1.70
2018-09-01T20:39:06.436Z,1.87
2018-09-01T20:41:41.564Z,1.43
2018-09-01T20:44:16.940Z,1.63
2018-09-01T20:46:51.960Z,1.57
2018-09-01T20:49:27.027Z,1.70
2018-09-01T20:52:02.119Z,1.20
2018-09-01T20:54:36.986Z,1.30
2018-09-01T20:57:11.994Z,1.33
2018-09-01T20:59:46.942Z,1.70
2018-09-01T21:02:21.865Z,1.07
2018-09-01T21:04:56.826Z,1.20
2018-09-01T21:07:31.644Z,1.50
2018-09-01T21:10:06.699Z,1.60
2018-09-01T21:12:41.906Z,1.27
2018-09-01T21:15:16.952Z,1.57
2018-09-01T21:17:51.844Z,1.47
2018-09-01T21:20:26.852Z,1.70
2018-09-01T21:23:01.929Z,1.37
2018-09-01T21:25:37.045Z,2.30
2018-09-01T21:28:12.076Z,1.37
2018-09-01T21:30:47.133Z,1.63
2018-09-01T21:33:22.308Z,1.17
2018-09-01T21:35:57.247Z,1.60
2018-09-01T21:38:32.137Z,1.80
2018-09-01T21:41:06.993Z,1.53
2018-09-01T21:43:41.782Z,1.70
2018-09-01T21:46:17.158Z,1.70
2018-09-01T21:48:52.184Z,1.13
2018-09-01T21:51:27.365Z,1.50
2018-09-01T21:54:02.363Z,1.00
2018-09-01T21:56:37.701Z,1.60
2018-09-01T21:59:12.652Z,1.53
2018-09-01T22:01:52.909Z,1.40
2018-09-01T22:04:32.073Z,1.33
2018-09-01T22:07:07.271Z,1.90
2018-09-01T22:09:42.366Z,1.47
2018-09-01T22:12:17.868Z,1.70
2018-09-01T22:14:53.761Z,1.57
2018-09-01T22:17:28.749Z,1.43
2018-09-01T22:20:03.717Z,1.57
2018-09-01T22:22:38.525Z,1.80
2018-09-01T22:25:13.262Z,1.33
2018-09-01T22:27:48.252Z,1.30
2018-09-01T22:30:23.319Z,1.87
2018-09-01T22:32:58.365Z,1.70
2018-09-01T22:35:33.505Z,2.07
2018-09-01T22:38:08.558Z,1.13
2018-09-01T22:40:43.702Z,1.53
2018-09-01T22:43:18.787Z,1.83
2018-09-01T22:45:53.843Z,1.67
2018-09-01T22:48:28.961Z,1.70
2018-09-01T22:51:04.092Z,1.13
2018-09-01T22:53:38.901Z,1.40
2018-09-01T22:56:13.904Z,1.50
2018-09-01T22:58:48.757Z,1.50
2018-09-01T23:01:23.762Z,1.00
2018-09-01T23:03:58.656Z,1.40
2018-09-01T23:06:33.732Z,2.20
2018-09-01T23:09:08.852Z,1.33
2018-09-01T23:11:43.679Z,1.33
2018-09-01T23:14:18.678Z,1.40
2018-09-01T23:16:53.483Z,1.50
2018-09-01T23:19:28.204Z,2.20
2018-09-01T23:22:03.280Z,2.00
2018-09-01T23:24:38.528Z,1.47
2018-09-01T23:27:13.527Z,1.20
2018-09-01T23:29:50.013Z,2.20
2018-09-01T23:32:25.092Z,1.60
2018-09-01T23:34:59.988Z,1.40
2018-09-01T23:37:34.885Z,1.40
2018-09-01T23:40:09.897Z,1.53
2018-09-01T23:42:44.944Z,1.30
2018-09-01T23:45:19.741Z,1.50
2018-09-01T23:47:54.936Z,1.13
2018-09-01T23:50:29.908Z,3.43
2018-09-01T23:53:04.970Z,1.60
2018-09-01T23:55:40.194Z,2.80
2018-09-01T23:58:15.196Z,1.20
